sensor_id;sensor_type;location;lat;lon;timestamp;P1;durP1;ratioP1;P2;durP2;ratioP2
40971;SDS011;26701;47.408;19.174;2023-03-31T00:01:33;21.20;;;11.43;;
40971;SDS011;26701;47.408;19.174;2023-03-31T00:03:59;19.20;;;9.93;;
40971;SDS011;26701;47.408;19.174;2023-03-31T00:06:33;20.80;;;10.43;;
40971;SDS011;26701;47.408;19.174;2023-03-31T00:09:07;22.08;;;12.27;;
40971;SDS011;26701;47.408;19.174;2023-03-31T00:11:34;20.63;;;10.43;;
40971;SDS011;26701;47.408;19.174;2023-03-31T00:14:01;27.75;;;11.68;;
40971;SDS011;26701;47.408;19.174;2023-03-31T00:16:28;21.45;;;11.32;;
40971;SDS011;26701;47.408;19.174;2023-03-31T00:18:54;22.13;;;10.82;;
40971;SDS011;26701;47.408;19.174;2023-03-31T00:21:21;21.20;;;11.35;;
40971;SDS011;26701;47.408;19.174;2023-03-31T00:23:54;19.38;;;10.98;;
40971;SDS011;26701;47.408;19.174;2023-03-31T00:26:23;21.42;;;11.80;;
40971;SDS011;26701;47.408;19.174;2023-03-31T00:28:50;19.60;;;10.52;;
40971;SDS011;26701;47.408;19.174;2023-03-31T00:31:17;21.00;;;11.15;;
40971;SDS011;26701;47.408;19.174;2023-03-31T00:33:43;19.92;;;11.40;;
40971;SDS011;26701;47.408;19.174;2023-03-31T00:36:09;20.90;;;9.48;;
40971;SDS011;26701;47.408;19.174;2023-03-31T00:38:35;20.27;;;11.55;;
40971;SDS011;26701;47.408;19.174;2023-03-31T00:41:02;22.48;;;11.00;;
40971;SDS011;26701;47.408;19.174;2023-03-31T00:43:30;25.23;;;13.07;;
40971;SDS011;26701;47.408;19.174;2023-03-31T00:48:28;23.77;;;11.32;;
40971;SDS011;26701;47.408;19.174;2023-03-31T00:50:55;21.63;;;11.10;;
40971;SDS011;26701;47.408;19.174;2023-03-31T00:55:50;20.02;;;11.60;;
40971;SDS011;26701;47.408;19.174;2023-03-31T00:58:19;19.30;;;11.52;;
40971;SDS011;26701;47.408;19.174;2023-03-31T01:00:47;22.50;;;11.90;;
40971;SDS011;26701;47.408;19.174;2023-03-31T01:03:14;22.80;;;11.13;;
40971;SDS011;26701;47.408;19.174;2023-03-31T01:08:14;19.33;;;10.50;;
40971;SDS011;26701;47.408;19.174;2023-03-31T01:10:43;18.73;;;10.10;;
40971;SDS011;26701;47.408;19.174;2023-03-31T01:13:10;20.52;;;11.18;;
40971;SDS011;26701;47.408;19.174;2023-03-31T01:15:39;17.75;;;10.75;;
40971;SDS011;26701;47.408;19.174;2023-03-31T01:18:06;23.15;;;10.45;;
40971;SDS011;26701;47.408;19.174;2023-03-31T01:41:35;18.30;;;10.77;;
40971;SDS011;26701;47.408;19.174;2023-03-31T01:44:08;20.02;;;10.30;;
40971;SDS011;26701;47.408;19.174;2023-03-31T01:46:39;22.35;;;11.18;;
40971;SDS011;26701;47.408;19.174;2023-03-31T01:49:28;20.60;;;11.18;;
40971;SDS011;26701;47.408;19.174;2023-03-31T01:57:44;20.92;;;10.85;;
40971;SDS011;26701;47.408;19.174;2023-03-31T02:00:16;19.65;;;10.85;;
40971;SDS011;26701;47.408;19.174;2023-03-31T02:02:59;20.00;;;11.13;;
40971;SDS011;26701;47.408;19.174;2023-03-31T02:05:34;18.85;;;10.98;;
40971;SDS011;26701;47.408;19.174;2023-03-31T02:08:07;17.27;;;10.55;;
40971;SDS011;26701;47.408;19.174;2023-03-31T02:10:38;20.40;;;10.73;;
40971;SDS011;26701;47.408;19.174;2023-03-31T02:13:06;17.63;;;10.80;;
40971;SDS011;26701;47.408;19.174;2023-03-31T02:15:36;17.77;;;11.35;;
40971;SDS011;26701;47.408;19.174;2023-03-31T02:18:05;19.48;;;10.98;;
40971;SDS011;26701;47.408;19.174;2023-03-31T02:20:37;20.55;;;11.50;;
40971;SDS011;26701;47.408;19.174;2023-03-31T02:23:06;20.30;;;10.73;;
40971;SDS011;26701;47.408;19.174;2023-03-31T02:25:37;19.55;;;11.05;;
40971;SDS011;26701;47.408;19.174;2023-03-31T02:28:11;18.88;;;10.40;;
40971;SDS011;26701;47.408;19.174;2023-03-31T02:31:26;16.27;;;9.70;;
40971;SDS011;26701;47.408;19.174;2023-03-31T02:33:50;22.13;;;9.77;;
40971;SDS011;26701;47.408;19.174;2023-03-31T02:36:16;20.60;;;9.60;;
40971;SDS011;26701;47.408;19.174;2023-03-31T02:39:05;15.85;;;9.45;;
40971;SDS011;26701;47.408;19.174;2023-03-31T02:41:36;18.35;;;9.20;;
40971;SDS011;26701;47.408;19.174;2023-03-31T02:44:03;17.75;;;10.30;;
40971;SDS011;26701;47.408;19.174;2023-03-31T02:46:29;21.50;;;8.80;;
40971;SDS011;26701;47.408;19.174;2023-03-31T02:48:59;14.20;;;8.82;;
40971;SDS011;26701;47.408;19.174;2023-03-31T02:54:14;17.15;;;9.30;;
40971;SDS011;26701;47.408;19.174;2023-03-31T02:57:12;20.55;;;8.18;;
40971;SDS011;26701;47.408;19.174;2023-03-31T03:16:15;17.70;;;8.85;;
40971;SDS011;26701;47.408;19.174;2023-03-31T03:18:43;18.67;;;9.45;;
40971;SDS011;26701;47.408;19.174;2023-03-31T03:21:16;15.23;;;8.85;;
40971;SDS011;26701;47.408;19.174;2023-03-31T03:23:42;16.10;;;8.65;;
40971;SDS011;26701;47.408;19.174;2023-03-31T03:26:08;19.73;;;9.50;;
40971;SDS011;26701;47.408;19.174;2023-03-31T03:28:34;21.25;;;8.82;;
40971;SDS011;26701;47.408;19.174;2023-03-31T03:31:00;15.85;;;9.50;;
40971;SDS011;26701;47.408;19.174;2023-03-31T03:33:27;17.27;;;10.18;;
40971;SDS011;26701;47.408;19.174;2023-03-31T03:35:53;12.52;;;7.38;;
40971;SDS011;26701;47.408;19.174;2023-03-31T03:38:19;20.13;;;9.43;;
40971;SDS011;26701;47.408;19.174;2023-03-31T03:40:45;21.50;;;9.18;;
40971;SDS011;26701;47.408;19.174;2023-03-31T03:43:11;15.98;;;8.65;;
40971;SDS011;26701;47.408;19.174;2023-03-31T03:45:37;13.63;;;8.10;;
40971;SDS011;26701;47.408;19.174;2023-03-31T03:48:03;18.88;;;10.32;;
40971;SDS011;26701;47.408;19.174;2023-03-31T03:50:30;17.27;;;8.80;;
40971;SDS011;26701;47.408;19.174;2023-03-31T03:52:56;17.15;;;8.00;;
40971;SDS011;26701;47.408;19.174;2023-03-31T03:55:22;13.02;;;7.22;;
40971;SDS011;26701;47.408;19.174;2023-03-31T03:57:48;13.55;;;7.75;;
40971;SDS011;26701;47.408;19.174;2023-03-31T04:00:14;12.10;;;7.43;;
40971;SDS011;26701;47.408;19.174;2023-03-31T04:02:41;18.27;;;7.90;;
40971;SDS011;26701;47.408;19.174;2023-03-31T04:05:07;15.32;;;7.63;;
40971;SDS011;26701;47.408;19.174;2023-03-31T04:07:34;13.70;;;6.63;;
40971;SDS011;26701;47.408;19.174;2023-03-31T04:10:00;12.45;;;5.70;;
40971;SDS011;26701;47.408;19.174;2023-03-31T04:12:26;12.77;;;6.53;;
40971;SDS011;26701;47.408;19.174;2023-03-31T04:14:52;10.25;;;6.03;;
40971;SDS011;26701;47.408;19.174;2023-03-31T04:17:18;13.90;;;6.35;;
40971;SDS011;26701;47.408;19.174;2023-03-31T04:19:56;10.75;;;6.20;;
40971;SDS011;26701;47.408;19.174;2023-03-31T04:22:28;10.30;;;5.95;;
40971;SDS011;26701;47.408;19.174;2023-03-31T04:25:06;10.18;;;6.82;;
40971;SDS011;26701;47.408;19.174;2023-03-31T04:27:44;12.05;;;6.32;;
40971;SDS011;26701;47.408;19.174;2023-03-31T04:30:17;16.48;;;6.65;;
40971;SDS011;26701;47.408;19.174;2023-03-31T04:32:55;10.85;;;6.95;;
40971;SDS011;26701;47.408;19.174;2023-03-31T04:35:22;12.07;;;6.28;;
40971;SDS011;26701;47.408;19.174;2023-03-31T04:37:50;18.88;;;9.45;;
40971;SDS011;26701;47.408;19.174;2023-03-31T04:40:22;14.52;;;6.75;;
40971;SDS011;26701;47.408;19.174;2023-03-31T04:42:48;11.73;;;6.55;;
40971;SDS011;26701;47.408;19.174;2023-03-31T04:45:15;15.32;;;8.52;;
40971;SDS011;26701;47.408;19.174;2023-03-31T04:47:41;10.80;;;6.97;;
40971;SDS011;26701;47.408;19.174;2023-03-31T04:50:08;15.38;;;7.13;;
40971;SDS011;26701;47.408;19.174;2023-03-31T04:52:37;16.25;;;8.00;;
40971;SDS011;26701;47.408;19.174;2023-03-31T04:55:04;14.23;;;8.68;;
40971;SDS011;26701;47.408;19.174;2023-03-31T04:57:30;12.90;;;6.63;;
40971;SDS011;26701;47.408;19.174;2023-03-31T04:59:56;17.25;;;7.03;;
40971;SDS011;26701;47.408;19.174;2023-03-31T05:02:24;15.13;;;8.75;;
40971;SDS011;26701;47.408;19.174;2023-03-31T05:04:50;18.35;;;10.02;;
40971;SDS011;26701;47.408;19.174;2023-03-31T05:07:17;15.30;;;8.80;;
40971;SDS011;26701;47.408;19.174;2023-03-31T05:09:43;11.02;;;7.30;;
40971;SDS011;26701;47.408;19.174;2023-03-31T05:12:10;16.05;;;7.85;;
40971;SDS011;26701;47.408;19.174;2023-03-31T05:14:36;17.23;;;9.25;;
40971;SDS011;26701;47.408;19.174;2023-03-31T05:17:02;12.25;;;7.93;;
40971;SDS011;26701;47.408;19.174;2023-03-31T05:19:28;17.63;;;7.88;;
40971;SDS011;26701;47.408;19.174;2023-03-31T05:21:55;17.27;;;7.63;;
40971;SDS011;26701;47.408;19.174;2023-03-31T05:24:21;15.15;;;8.43;;
40971;SDS011;26701;47.408;19.174;2023-03-31T05:26:47;17.80;;;8.82;;
40971;SDS011;26701;47.408;19.174;2023-03-31T05:29:20;17.45;;;8.63;;
40971;SDS011;26701;47.408;19.174;2023-03-31T05:31:46;14.55;;;8.18;;
40971;SDS011;26701;47.408;19.174;2023-03-31T05:34:12;15.82;;;8.95;;
40971;SDS011;26701;47.408;19.174;2023-03-31T05:36:39;15.50;;;8.80;;
40971;SDS011;26701;47.408;19.174;2023-03-31T05:39:05;18.83;;;8.80;;
40971;SDS011;26701;47.408;19.174;2023-03-31T05:41:32;16.58;;;10.13;;
40971;SDS011;26701;47.408;19.174;2023-03-31T05:43:58;16.73;;;8.88;;
40971;SDS011;26701;47.408;19.174;2023-03-31T05:46:26;11.35;;;7.25;;
40971;SDS011;26701;47.408;19.174;2023-03-31T05:48:52;11.20;;;7.38;;
40971;SDS011;26701;47.408;19.174;2023-03-31T05:51:19;15.07;;;8.10;;
40971;SDS011;26701;47.408;19.174;2023-03-31T05:53:45;13.60;;;7.93;;
40971;SDS011;26701;47.408;19.174;2023-03-31T05:56:11;13.45;;;7.85;;
40971;SDS011;26701;47.408;19.174;2023-03-31T05:58:37;13.73;;;8.23;;
40971;SDS011;26701;47.408;19.174;2023-03-31T06:01:14;14.23;;;8.38;;
40971;SDS011;26701;47.408;19.174;2023-03-31T06:03:44;19.67;;;8.77;;
40971;SDS011;26701;47.408;19.174;2023-03-31T06:06:10;13.18;;;8.05;;
40971;SDS011;26701;47.408;19.174;2023-03-31T06:08:37;14.68;;;8.02;;
40971;SDS011;26701;47.408;19.174;2023-03-31T06:11:04;13.65;;;8.05;;
40971;SDS011;26701;47.408;19.174;2023-03-31T06:13:31;15.60;;;8.13;;
40971;SDS011;26701;47.408;19.174;2023-03-31T06:15:58;11.57;;;6.47;;
40971;SDS011;26701;47.408;19.174;2023-03-31T06:18:28;11.85;;;7.75;;
40971;SDS011;26701;47.408;19.174;2023-03-31T06:20:55;13.80;;;7.20;;
40971;SDS011;26701;47.408;19.174;2023-03-31T06:23:22;15.25;;;9.38;;
40971;SDS011;26701;47.408;19.174;2023-03-31T06:25:49;15.68;;;7.35;;
40971;SDS011;26701;47.408;19.174;2023-03-31T06:28:15;11.15;;;7.10;;
40971;SDS011;26701;47.408;19.174;2023-03-31T06:30:41;11.70;;;7.45;;
40971;SDS011;26701;47.408;19.174;2023-03-31T06:33:07;13.07;;;7.10;;
40971;SDS011;26701;47.408;19.174;2023-03-31T06:35:37;11.07;;;7.32;;
40971;SDS011;26701;47.408;19.174;2023-03-31T06:38:04;11.60;;;6.82;;
40971;SDS011;26701;47.408;19.174;2023-03-31T06:40:30;14.27;;;8.07;;
40971;SDS011;26701;47.408;19.174;2023-03-31T06:42:57;13.75;;;6.97;;
40971;SDS011;26701;47.408;19.174;2023-03-31T06:45:23;12.10;;;7.28;;
40971;SDS011;26701;47.408;19.174;2023-03-31T06:47:49;12.88;;;7.20;;
40971;SDS011;26701;47.408;19.174;2023-03-31T06:50:16;11.38;;;7.20;;
40971;SDS011;26701;47.408;19.174;2023-03-31T06:52:42;12.82;;;7.22;;
40971;SDS011;26701;47.408;19.174;2023-03-31T06:55:08;11.90;;;7.43;;
40971;SDS011;26701;47.408;19.174;2023-03-31T06:57:35;13.88;;;7.45;;
40971;SDS011;26701;47.408;19.174;2023-03-31T07:00:01;14.40;;;8.68;;
40971;SDS011;26701;47.408;19.174;2023-03-31T07:02:27;10.00;;;6.32;;
40971;SDS011;26701;47.408;19.174;2023-03-31T07:04:54;16.35;;;7.93;;
40971;SDS011;26701;47.408;19.174;2023-03-31T07:07:20;12.80;;;8.32;;
40971;SDS011;26701;47.408;19.174;2023-03-31T07:09:46;15.02;;;7.65;;
40971;SDS011;26701;47.408;19.174;2023-03-31T07:12:12;13.48;;;8.63;;
40971;SDS011;26701;47.408;19.174;2023-03-31T07:14:38;15.55;;;7.60;;
40971;SDS011;26701;47.408;19.174;2023-03-31T07:17:04;15.02;;;8.55;;
40971;SDS011;26701;47.408;19.174;2023-03-31T07:19:31;14.23;;;7.45;;
40971;SDS011;26701;47.408;19.174;2023-03-31T07:21:57;15.38;;;8.10;;
40971;SDS011;26701;47.408;19.174;2023-03-31T07:24:23;12.30;;;8.38;;
40971;SDS011;26701;47.408;19.174;2023-03-31T07:26:49;11.20;;;7.50;;
40971;SDS011;26701;47.408;19.174;2023-03-31T07:29:15;14.95;;;10.30;;
40971;SDS011;26701;47.408;19.174;2023-03-31T07:31:41;14.20;;;8.18;;
40971;SDS011;26701;47.408;19.174;2023-03-31T07:34:07;14.43;;;8.93;;
40971;SDS011;26701;47.408;19.174;2023-03-31T07:36:33;15.48;;;8.80;;
40971;SDS011;26701;47.408;19.174;2023-03-31T07:38:59;14.63;;;9.40;;
40971;SDS011;26701;47.408;19.174;2023-03-31T07:41:25;14.95;;;8.55;;
40971;SDS011;26701;47.408;19.174;2023-03-31T07:43:52;14.27;;;7.93;;
40971;SDS011;26701;47.408;19.174;2023-03-31T07:46:19;14.93;;;8.65;;
40971;SDS011;26701;47.408;19.174;2023-03-31T07:48:47;11.95;;;7.40;;
40971;SDS011;26701;47.408;19.174;2023-03-31T07:51:17;12.52;;;8.45;;
40971;SDS011;26701;47.408;19.174;2023-03-31T07:53:43;15.45;;;7.38;;
40971;SDS011;26701;47.408;19.174;2023-03-31T07:56:10;12.27;;;7.15;;
40971;SDS011;26701;47.408;19.174;2023-03-31T07:58:36;13.70;;;7.22;;
40971;SDS011;26701;47.408;19.174;2023-03-31T08:01:02;11.63;;;6.50;;
40971;SDS011;26701;47.408;19.174;2023-03-31T08:03:28;12.43;;;7.45;;
40971;SDS011;26701;47.408;19.174;2023-03-31T08:05:56;14.18;;;6.63;;
40971;SDS011;26701;47.408;19.174;2023-03-31T08:08:22;12.95;;;6.50;;
40971;SDS011;26701;47.408;19.174;2023-03-31T08:10:51;10.77;;;5.80;;
40971;SDS011;26701;47.408;19.174;2023-03-31T08:13:17;11.00;;;6.18;;
40971;SDS011;26701;47.408;19.174;2023-03-31T08:15:43;9.52;;;6.45;;
40971;SDS011;26701;47.408;19.174;2023-03-31T08:18:09;8.50;;;5.43;;
40971;SDS011;26701;47.408;19.174;2023-03-31T08:20:36;10.57;;;6.40;;
40971;SDS011;26701;47.408;19.174;2023-03-31T08:23:03;11.82;;;6.57;;
40971;SDS011;26701;47.408;19.174;2023-03-31T08:25:33;12.02;;;6.45;;
40971;SDS011;26701;47.408;19.174;2023-03-31T08:27:59;8.27;;;6.22;;
40971;SDS011;26701;47.408;19.174;2023-03-31T08:30:25;12.65;;;6.05;;
40971;SDS011;26701;47.408;19.174;2023-03-31T08:32:51;9.82;;;6.15;;
40971;SDS011;26701;47.408;19.174;2023-03-31T08:35:17;12.35;;;6.15;;
40971;SDS011;26701;47.408;19.174;2023-03-31T08:37:43;10.43;;;5.55;;
40971;SDS011;26701;47.408;19.174;2023-03-31T08:40:18;13.45;;;6.88;;
40971;SDS011;26701;47.408;19.174;2023-03-31T08:42:50;12.18;;;6.40;;
40971;SDS011;26701;47.408;19.174;2023-03-31T08:45:24;9.55;;;5.30;;
40971;SDS011;26701;47.408;19.174;2023-03-31T08:50:26;13.77;;;6.00;;
40971;SDS011;26701;47.408;19.174;2023-03-31T08:53:41;7.93;;;5.63;;
40971;SDS011;26701;47.408;19.174;2023-03-31T08:55:51;12.95;;;5.57;;
40971;SDS011;26701;47.408;19.174;2023-03-31T09:00:51;6.50;;;4.22;;
40971;SDS011;26701;47.408;19.174;2023-03-31T09:06:25;6.53;;;4.72;;
40971;SDS011;26701;47.408;19.174;2023-03-31T09:09:00;9.98;;;4.68;;
40971;SDS011;26701;47.408;19.174;2023-03-31T09:14:32;6.13;;;3.67;;
40971;SDS011;26701;47.408;19.174;2023-03-31T09:17:12;7.60;;;4.20;;
40971;SDS011;26701;47.408;19.174;2023-03-31T09:22:15;8.88;;;5.03;;
40971;SDS011;26701;47.408;19.174;2023-03-31T09:24:57;7.80;;;4.35;;
40971;SDS011;26701;47.408;19.174;2023-03-31T09:27:51;9.35;;;5.10;;
40971;SDS011;26701;47.408;19.174;2023-03-31T09:30:29;6.18;;;3.97;;
40971;SDS011;26701;47.408;19.174;2023-03-31T09:33:21;8.40;;;4.70;;
40971;SDS011;26701;47.408;19.174;2023-03-31T09:35:51;6.90;;;3.92;;
40971;SDS011;26701;47.408;19.174;2023-03-31T09:38:20;8.75;;;3.90;;
40971;SDS011;26701;47.408;19.174;2023-03-31T09:40:46;7.22;;;4.63;;
40971;SDS011;26701;47.408;19.174;2023-03-31T09:43:23;9.43;;;3.83;;
40971;SDS011;26701;47.408;19.174;2023-03-31T09:45:51;8.88;;;4.07;;
40971;SDS011;26701;47.408;19.174;2023-03-31T09:48:22;7.63;;;4.88;;
40971;SDS011;26701;47.408;19.174;2023-03-31T09:50:49;6.00;;;3.67;;
40971;SDS011;26701;47.408;19.174;2023-03-31T09:56:02;7.55;;;4.90;;
40971;SDS011;26701;47.408;19.174;2023-03-31T09:58:39;6.50;;;4.43;;
40971;SDS011;26701;47.408;19.174;2023-03-31T10:01:05;7.57;;;4.05;;
40971;SDS011;26701;47.408;19.174;2023-03-31T10:03:40;7.18;;;3.65;;
40971;SDS011;26701;47.408;19.174;2023-03-31T10:06:10;6.15;;;4.28;;
40971;SDS011;26701;47.408;19.174;2023-03-31T10:13:37;6.15;;;4.28;;
40971;SDS011;26701;47.408;19.174;2023-03-31T10:16:06;7.53;;;3.42;;
40971;SDS011;26701;47.408;19.174;2023-03-31T10:18:40;7.72;;;3.40;;
40971;SDS011;26701;47.408;19.174;2023-03-31T10:21:14;5.72;;;3.33;;
40971;SDS011;26701;47.408;19.174;2023-03-31T10:23:51;6.68;;;3.92;;
40971;SDS011;26701;47.408;19.174;2023-03-31T10:26:21;7.70;;;4.22;;
40971;SDS011;26701;47.408;19.174;2023-03-31T10:28:49;5.78;;;3.60;;
40971;SDS011;26701;47.408;19.174;2023-03-31T10:31:17;5.30;;;3.72;;
40971;SDS011;26701;47.408;19.174;2023-03-31T10:33:44;10.80;;;4.00;;
40971;SDS011;26701;47.408;19.174;2023-03-31T10:38:43;6.25;;;3.30;;
40971;SDS011;26701;47.408;19.174;2023-03-31T10:41:10;8.20;;;4.07;;
40971;SDS011;26701;47.408;19.174;2023-03-31T10:46:03;8.82;;;5.03;;
40971;SDS011;26701;47.408;19.174;2023-03-31T10:51:20;5.85;;;3.63;;
40971;SDS011;26701;47.408;19.174;2023-03-31T10:53:47;7.13;;;3.22;;
40971;SDS011;26701;47.408;19.174;2023-03-31T11:01:13;5.32;;;3.47;;
40971;SDS011;26701;47.408;19.174;2023-03-31T11:03:49;7.50;;;3.88;;
40971;SDS011;26701;47.408;19.174;2023-03-31T11:06:38;7.68;;;4.05;;
40971;SDS011;26701;47.408;19.174;2023-03-31T11:09:54;6.38;;;4.13;;
40971;SDS011;26701;47.408;19.174;2023-03-31T11:12:18;9.70;;;4.47;;
40971;SDS011;26701;47.408;19.174;2023-03-31T11:15:04;6.22;;;4.15;;
40971;SDS011;26701;47.408;19.174;2023-03-31T11:25:52;8.20;;;4.00;;
40971;SDS011;26701;47.408;19.174;2023-03-31T11:30:57;8.45;;;3.90;;
40971;SDS011;26701;47.408;19.174;2023-03-31T11:41:46;8.38;;;3.30;;
40971;SDS011;26701;47.408;19.174;2023-03-31T11:44:15;7.45;;;3.28;;
40971;SDS011;26701;47.408;19.174;2023-03-31T11:49:19;4.28;;;3.03;;
40971;SDS011;26701;47.408;19.174;2023-03-31T11:51:50;4.75;;;3.03;;
40971;SDS011;26701;47.408;19.174;2023-03-31T11:54:36;4.75;;;3.55;;
40971;SDS011;26701;47.408;19.174;2023-03-31T11:57:08;5.38;;;2.80;;
40971;SDS011;26701;47.408;19.174;2023-03-31T11:59:54;5.95;;;3.42;;
40971;SDS011;26701;47.408;19.174;2023-03-31T12:02:30;6.75;;;3.22;;
40971;SDS011;26701;47.408;19.174;2023-03-31T12:04:58;6.30;;;3.85;;
40971;SDS011;26701;47.408;19.174;2023-03-31T12:15:45;6.50;;;3.85;;
40971;SDS011;26701;47.408;19.174;2023-03-31T12:18:25;7.15;;;4.00;;
40971;SDS011;26701;47.408;19.174;2023-03-31T12:20:54;6.45;;;3.80;;
40971;SDS011;26701;47.408;19.174;2023-03-31T12:23:22;5.90;;;4.27;;
40971;SDS011;26701;47.408;19.174;2023-03-31T12:28:35;9.50;;;4.63;;
40971;SDS011;26701;47.408;19.174;2023-03-31T12:31:03;6.20;;;3.92;;
40971;SDS011;26701;47.408;19.174;2023-03-31T12:38:49;9.05;;;3.90;;
40971;SDS011;26701;47.408;19.174;2023-03-31T12:57:02;10.98;;;4.30;;
40971;SDS011;26701;47.408;19.174;2023-03-31T12:59:40;8.27;;;4.20;;
40971;SDS011;26701;47.408;19.174;2023-03-31T13:04:36;6.57;;;3.88;;
40971;SDS011;26701;47.408;19.174;2023-03-31T13:07:03;6.45;;;3.97;;
40971;SDS011;26701;47.408;19.174;2023-03-31T13:11:56;6.70;;;3.17;;
40971;SDS011;26701;47.408;19.174;2023-03-31T13:14:23;5.93;;;2.85;;
40971;SDS011;26701;47.408;19.174;2023-03-31T13:16:54;8.88;;;4.10;;
40971;SDS011;26701;47.408;19.174;2023-03-31T13:19:35;8.82;;;3.53;;
40971;SDS011;26701;47.408;19.174;2023-03-31T13:22:04;6.25;;;4.70;;
40971;SDS011;26701;47.408;19.174;2023-03-31T13:24:31;8.23;;;4.10;;
40971;SDS011;26701;47.408;19.174;2023-03-31T13:27:23;4.88;;;3.28;;
40971;SDS011;26701;47.408;19.174;2023-03-31T13:29:44;9.88;;;4.65;;
40971;SDS011;26701;47.408;19.174;2023-03-31T13:35:05;5.28;;;3.72;;
40971;SDS011;26701;47.408;19.174;2023-03-31T13:42:52;11.07;;;3.50;;
40971;SDS011;26701;47.408;19.174;2023-03-31T13:45:25;9.85;;;4.85;;
40971;SDS011;26701;47.408;19.174;2023-03-31T13:48:53;5.60;;;3.30;;
40971;SDS011;26701;47.408;19.174;2023-03-31T13:54:22;7.10;;;3.15;;
40971;SDS011;26701;47.408;19.174;2023-03-31T13:59:45;4.93;;;3.53;;
40971;SDS011;26701;47.408;19.174;2023-03-31T14:11:26;8.02;;;3.63;;
40971;SDS011;26701;47.408;19.174;2023-03-31T14:14:04;4.93;;;3.58;;
40971;SDS011;26701;47.408;19.174;2023-03-31T14:16:32;6.97;;;4.70;;
40971;SDS011;26701;47.408;19.174;2023-03-31T14:19:10;7.65;;;3.17;;
40971;SDS011;26701;47.408;19.174;2023-03-31T14:21:42;6.80;;;3.33;;
40971;SDS011;26701;47.408;19.174;2023-03-31T14:27:50;9.38;;;3.55;;
40971;SDS011;26701;47.408;19.174;2023-03-31T14:32:25;6.85;;;3.38;;
40971;SDS011;26701;47.408;19.174;2023-03-31T14:35:58;7.25;;;3.85;;
40971;SDS011;26701;47.408;19.174;2023-03-31T14:37:53;6.07;;;3.58;;
40971;SDS011;26701;47.408;19.174;2023-03-31T14:40:19;5.57;;;3.22;;
40971;SDS011;26701;47.408;19.174;2023-03-31T14:42:46;7.28;;;3.60;;
40971;SDS011;26701;47.408;19.174;2023-03-31T14:45:22;11.43;;;3.90;;
40971;SDS011;26701;47.408;19.174;2023-03-31T14:50:27;5.25;;;2.97;;
40971;SDS011;26701;47.408;19.174;2023-03-31T14:52:55;6.38;;;3.25;;
40971;SDS011;26701;47.408;19.174;2023-03-31T14:55:22;8.00;;;4.07;;
40971;SDS011;26701;47.408;19.174;2023-03-31T14:57:49;8.07;;;3.67;;
40971;SDS011;26701;47.408;19.174;2023-03-31T15:00:49;5.60;;;2.95;;
40971;SDS011;26701;47.408;19.174;2023-03-31T15:03:11;6.28;;;2.88;;
40971;SDS011;26701;47.408;19.174;2023-03-31T15:05:39;4.88;;;2.60;;
40971;SDS011;26701;47.408;19.174;2023-03-31T15:08:06;6.43;;;3.00;;
40971;SDS011;26701;47.408;19.174;2023-03-31T15:10:39;5.25;;;3.20;;
40971;SDS011;26701;47.408;19.174;2023-03-31T15:13:11;5.28;;;2.80;;
40971;SDS011;26701;47.408;19.174;2023-03-31T15:15:37;7.45;;;4.18;;
40971;SDS011;26701;47.408;19.174;2023-03-31T15:18:03;6.20;;;2.80;;
40971;SDS011;26701;47.408;19.174;2023-03-31T15:20:31;9.98;;;3.05;;
40971;SDS011;26701;47.408;19.174;2023-03-31T15:23:00;7.07;;;3.58;;
40971;SDS011;26701;47.408;19.174;2023-03-31T15:25:30;6.97;;;3.42;;
40971;SDS011;26701;47.408;19.174;2023-03-31T15:28:01;4.45;;;3.00;;
40971;SDS011;26701;47.408;19.174;2023-03-31T15:30:32;6.28;;;3.45;;
40971;SDS011;26701;47.408;19.174;2023-03-31T15:32:58;7.55;;;3.17;;
40971;SDS011;26701;47.408;19.174;2023-03-31T15:35:29;6.18;;;3.25;;
40971;SDS011;26701;47.408;19.174;2023-03-31T15:37:58;4.22;;;3.08;;
40971;SDS011;26701;47.408;19.174;2023-03-31T15:40:26;4.25;;;2.67;;
40971;SDS011;26701;47.408;19.174;2023-03-31T15:42:57;10.30;;;3.35;;
40971;SDS011;26701;47.408;19.174;2023-03-31T15:47:55;7.53;;;3.53;;
40971;SDS011;26701;47.408;19.174;2023-03-31T15:50:22;4.68;;;2.92;;
40971;SDS011;26701;47.408;19.174;2023-03-31T15:52:49;5.25;;;3.15;;
40971;SDS011;26701;47.408;19.174;2023-03-31T15:55:30;7.03;;;3.42;;
40971;SDS011;26701;47.408;19.174;2023-03-31T15:58:03;8.35;;;3.70;;
40971;SDS011;26701;47.408;19.174;2023-03-31T16:02:56;7.38;;;3.17;;
40971;SDS011;26701;47.408;19.174;2023-03-31T16:08:11;9.50;;;4.03;;
40971;SDS011;26701;47.408;19.174;2023-03-31T16:10:39;7.68;;;2.85;;
40971;SDS011;26701;47.408;19.174;2023-03-31T16:13:06;6.40;;;2.90;;
40971;SDS011;26701;47.408;19.174;2023-03-31T16:15:39;4.88;;;2.60;;
40971;SDS011;26701;47.408;19.174;2023-03-31T16:18:32;4.78;;;2.58;;
40971;SDS011;26701;47.408;19.174;2023-03-31T16:21:01;4.05;;;2.55;;
40971;SDS011;26701;47.408;19.174;2023-03-31T16:23:30;6.13;;;2.80;;
40971;SDS011;26701;47.408;19.174;2023-03-31T16:25:57;6.07;;;2.72;;
40971;SDS011;26701;47.408;19.174;2023-03-31T16:28:24;4.40;;;3.00;;
40971;SDS011;26701;47.408;19.174;2023-03-31T16:30:51;6.53;;;2.72;;
40971;SDS011;26701;47.408;19.174;2023-03-31T16:33:19;5.47;;;3.17;;
40971;SDS011;26701;47.408;19.174;2023-03-31T16:35:50;6.10;;;4.00;;
40971;SDS011;26701;47.408;19.174;2023-03-31T16:38:18;4.50;;;3.08;;
40971;SDS011;26701;47.408;19.174;2023-03-31T16:40:46;8.00;;;3.38;;
40971;SDS011;26701;47.408;19.174;2023-03-31T16:45:40;7.68;;;3.63;;
40971;SDS011;26701;47.408;19.174;2023-03-31T16:48:09;7.85;;;3.03;;
40971;SDS011;26701;47.408;19.174;2023-03-31T16:50:35;6.47;;;2.90;;
40971;SDS011;26701;47.408;19.174;2023-03-31T16:53:02;8.40;;;2.70;;
40971;SDS011;26701;47.408;19.174;2023-03-31T16:55:29;6.10;;;2.90;;
40971;SDS011;26701;47.408;19.174;2023-03-31T16:57:56;8.32;;;2.85;;
40971;SDS011;26701;47.408;19.174;2023-03-31T17:00:23;4.68;;;2.83;;
40971;SDS011;26701;47.408;19.174;2023-03-31T17:02:49;4.72;;;2.65;;
40971;SDS011;26701;47.408;19.174;2023-03-31T17:05:16;5.00;;;2.55;;
40971;SDS011;26701;47.408;19.174;2023-03-31T17:07:42;12.70;;;3.67;;
40971;SDS011;26701;47.408;19.174;2023-03-31T17:10:08;9.73;;;5.65;;
40971;SDS011;26701;47.408;19.174;2023-03-31T17:12:35;14.38;;;8.25;;
40971;SDS011;26701;47.408;19.174;2023-03-31T17:15:01;23.05;;;14.88;;
40971;SDS011;26701;47.408;19.174;2023-03-31T17:17:28;17.63;;;11.63;;
40971;SDS011;26701;47.408;19.174;2023-03-31T17:19:54;9.85;;;6.63;;
40971;SDS011;26701;47.408;19.174;2023-03-31T17:22:21;7.55;;;3.58;;
40971;SDS011;26701;47.408;19.174;2023-03-31T17:24:47;11.25;;;6.22;;
40971;SDS011;26701;47.408;19.174;2023-03-31T17:27:16;7.30;;;3.67;;
40971;SDS011;26701;47.408;19.174;2023-03-31T17:29:43;15.70;;;7.40;;
40971;SDS011;26701;47.408;19.174;2023-03-31T17:32:09;7.72;;;5.07;;
40971;SDS011;26701;47.408;19.174;2023-03-31T17:34:37;6.30;;;3.83;;
40971;SDS011;26701;47.408;19.174;2023-03-31T17:37:03;9.15;;;4.40;;
40971;SDS011;26701;47.408;19.174;2023-03-31T17:39:29;8.27;;;3.67;;
40971;SDS011;26701;47.408;19.174;2023-03-31T17:41:56;11.50;;;6.35;;
40971;SDS011;26701;47.408;19.174;2023-03-31T17:44:22;6.55;;;3.47;;
40971;SDS011;26701;47.408;19.174;2023-03-31T17:46:48;7.43;;;3.88;;
40971;SDS011;26701;47.408;19.174;2023-03-31T17:49:15;8.13;;;4.10;;